sensor_id;sensor_type;location;lat;lon;timestamp;pressure;altitude;pressure_sealevel;temperature;humidity
54556;BME280;57291;37.520;15.106;2023-12-20T00:02:25;101505.75;;;11.13;87.20
54556;BME280;57291;37.520;15.106;2023-12-20T00:04:53;101505.75;;;11.13;87.20
54556;BME280;57291;37.520;15.106;2023-12-20T00:07:20;101494.88;;;11.13;87.25
54556;BME280;57291;37.520;15.106;2023-12-20T00:09:48;101498.41;;;11.13;87.58
54556;BME280;57291;37.520;15.106;2023-12-20T00:12:15;101496.22;;;11.15;87.37
54556;BME280;57291;37.520;15.106;2023-12-20T00:14:42;101488.34;;;11.14;87.71
54556;BME280;57291;37.520;15.106;2023-12-20T00:17:10;101476.66;;;11.13;87.97
54556;BME280;57291;37.520;15.106;2023-12-20T00:19:37;101482.09;;;11.13;87.92
54556;BME280;57291;37.520;15.106;2023-12-20T00:22:05;101473.94;;;11.13;88.17
54556;BME280;57291;37.520;15.106;2023-12-20T00:24:32;101465.22;;;11.11;88.64
54556;BME280;57291;37.520;15.106;2023-12-20T00:26:59;101466.03;;;11.12;88.52
54556;BME280;57291;37.520;15.106;2023-12-20T00:29:27;101462.25;;;11.13;88.46
54556;BME280;57291;37.520;15.106;2023-12-20T00:31:54;101462.50;;;11.11;88.18
54556;BME280;57291;37.520;15.106;2023-12-20T00:34:21;101463.06;;;11.08;88.29
54556;BME280;57291;37.520;15.106;2023-12-20T00:36:49;101456.28;;;11.06;88.54
54556;BME280;57291;37.520;15.106;2023-12-20T00:39:16;101461.75;;;11.06;88.51
54556;BME280;57291;37.520;15.106;2023-12-20T00:41:43;101454.94;;;11.03;88.64
54556;BME280;57291;37.520;15.106;2023-12-20T00:44:11;101459.56;;;11.02;88.96
54556;BME280;57291;37.520;15.106;2023-12-20T00:46:38;101452.50;;;11.01;89.05
54556;BME280;57291;37.520;15.106;2023-12-20T00:49:05;101450.88;;;11.00;89.10
54556;BME280;57291;37.520;15.106;2023-12-20T00:51:33;101459.84;;;11.01;88.94
54556;BME280;57291;37.520;15.106;2023-12-20T00:54:00;101453.59;;;11.00;88.98
54556;BME280;57291;37.520;15.106;2023-12-20T00:56:28;101447.59;;;11.03;89.49
54556;BME280;57291;37.520;15.106;2023-12-20T00:58:55;101447.03;;;11.07;89.31
54556;BME280;57291;37.520;15.106;2023-12-20T01:01:22;101444.31;;;11.07;88.81
54556;BME280;57291;37.520;15.106;2023-12-20T01:03:50;101434.50;;;11.11;88.93
54556;BME280;57291;37.520;15.106;2023-12-20T01:06:18;101437.50;;;11.09;88.69
54556;BME280;57291;37.520;15.106;2023-12-20T01:08:46;101436.66;;;11.09;88.49
54556;BME280;57291;37.520;15.106;2023-12-20T01:11:13;101431.53;;;11.07;88.84
54556;BME280;57291;37.520;15.106;2023-12-20T01:13:42;101436.16;;;11.07;88.75
54556;BME280;57291;37.520;15.106;2023-12-20T01:16:10;101433.44;;;11.07;88.70
54556;BME280;57291;37.520;15.106;2023-12-20T01:18:38;101429.09;;;11.06;88.57
54556;BME280;57291;37.520;15.106;2023-12-20T01:21:06;101421.50;;;11.02;88.63
54556;BME280;57291;37.520;15.106;2023-12-20T01:23:33;101423.94;;;10.99;88.50
54556;BME280;57291;37.520;15.106;2023-12-20T01:26:00;101413.34;;;10.97;88.92
54556;BME280;57291;37.520;15.106;2023-12-20T01:28:28;101409.53;;;10.98;88.75
54556;BME280;57291;37.520;15.106;2023-12-20T01:30:57;101397.03;;;10.97;88.37
54556;BME280;57291;37.520;15.106;2023-12-20T01:33:25;101384.00;;;10.94;88.89
54556;BME280;57291;37.520;15.106;2023-12-20T01:35:52;101386.16;;;10.97;88.59
54556;BME280;57291;37.520;15.106;2023-12-20T01:38:20;101384.53;;;10.96;88.51
54556;BME280;57291;37.520;15.106;2023-12-20T01:40:47;101371.50;;;10.93;88.52
54556;BME280;57291;37.520;15.106;2023-12-20T01:43:14;101375.84;;;10.94;88.50
54556;BME280;57291;37.520;15.106;2023-12-20T01:45:42;101372.31;;;10.94;88.52
54556;BME280;57291;37.520;15.106;2023-12-20T01:48:10;101371.50;;;10.93;88.39
54556;BME280;57291;37.520;15.106;2023-12-20T01:50:38;101365.53;;;10.91;88.38
54556;BME280;57291;37.520;15.106;2023-12-20T01:53:08;101368.78;;;10.93;88.48
54556;BME280;57291;37.520;15.106;2023-12-20T01:55:40;101364.69;;;10.96;88.79
54556;BME280;57291;37.520;15.106;2023-12-20T01:58:08;101363.84;;;10.95;88.52
54556;BME280;57291;37.520;15.106;2023-12-20T02:00:37;101362.25;;;10.94;88.49
54556;BME280;57291;37.520;15.106;2023-12-20T02:03:04;101355.69;;;10.95;88.67
54556;BME280;57291;37.520;15.106;2023-12-20T02:05:34;101355.69;;;10.95;88.42
54556;BME280;57291;37.520;15.106;2023-12-20T02:08:02;101355.69;;;10.95;88.54
54556;BME280;57291;37.520;15.106;2023-12-20T02:10:29;101348.63;;;10.94;88.49
54556;BME280;57291;37.520;15.106;2023-12-20T02:12:57;101353.28;;;10.94;88.32
54556;BME280;57291;37.520;15.106;2023-12-20T02:15:25;101354.63;;;10.91;88.26
54556;BME280;57291;37.520;15.106;2023-12-20T02:17:52;101347.59;;;10.90;88.51
54556;BME280;57291;37.520;15.106;2023-12-20T02:20:20;101341.34;;;10.90;88.29
54556;BME280;57291;37.520;15.106;2023-12-20T02:22:47;101345.38;;;10.92;88.33
54556;BME280;57291;37.520;15.106;2023-12-20T02:25:15;101336.72;;;10.90;88.14
54556;BME280;57291;37.520;15.106;2023-12-20T02:27:43;101331.53;;;10.89;88.04
54556;BME280;57291;37.520;15.106;2023-12-20T02:30:11;101322.56;;;10.88;87.79
54556;BME280;57291;37.520;15.106;2023-12-20T02:32:38;101314.16;;;10.90;87.61
54556;BME280;57291;37.520;15.106;2023-12-20T02:35:06;101309.50;;;10.90;87.37
54556;BME280;57291;37.520;15.106;2023-12-20T02:37:33;101310.31;;;10.91;87.24
54556;BME280;57291;37.520;15.106;2023-12-20T02:40:01;101299.75;;;10.89;87.27
54556;BME280;57291;37.520;15.106;2023-12-20T02:42:28;101297.34;;;10.83;87.32
54556;BME280;57291;37.520;15.106;2023-12-20T02:44:56;101291.06;;;10.82;87.42
54556;BME280;57291;37.520;15.106;2023-12-20T02:47:23;101288.88;;;10.84;87.46
54556;BME280;57291;37.520;15.106;2023-12-20T02:49:50;101290.78;;;10.84;87.35
54556;BME280;57291;37.520;15.106;2023-12-20T02:52:20;101275.31;;;10.79;87.38
54556;BME280;57291;37.520;15.106;2023-12-20T02:54:47;101277.75;;;10.80;87.70
54556;BME280;57291;37.520;15.106;2023-12-20T02:57:14;101276.97;;;10.80;87.68
54556;BME280;57291;37.520;15.106;2023-12-20T02:59:42;101275.31;;;10.79;88.01
54556;BME280;57291;37.520;15.106;2023-12-20T03:02:09;101277.22;;;10.78;88.24
54556;BME280;57291;37.520;15.106;2023-12-20T03:04:36;101279.94;;;10.78;87.84
54556;BME280;57291;37.520;15.106;2023-12-20T03:07:04;101276.72;;;10.76;87.98
54556;BME280;57291;37.520;15.106;2023-12-20T03:09:31;101273.47;;;10.74;88.02
54556;BME280;57291;37.520;15.106;2023-12-20T03:12:19;101272.91;;;10.72;87.83
54556;BME280;57291;37.520;15.106;2023-12-20T03:14:48;101272.66;;;10.69;87.92
54556;BME280;57291;37.520;15.106;2023-12-20T03:17:15;101275.13;;;10.65;89.44
54556;BME280;57291;37.520;15.106;2023-12-20T03:19:42;101276.00;;;10.61;89.30
54556;BME280;57291;37.520;15.106;2023-12-20T03:22:10;101267.56;;;10.62;89.60
54556;BME280;57291;37.520;15.106;2023-12-20T03:24:37;101258.59;;;10.62;89.95
54556;BME280;57291;37.520;15.106;2023-12-20T03:27:05;101264.31;;;10.60;89.43
54556;BME280;57291;37.520;15.106;2023-12-20T03:29:32;101267.88;;;10.55;89.88
54556;BME280;57291;37.520;15.106;2023-12-20T03:31:59;101262.44;;;10.55;89.79
54556;BME280;57291;37.520;15.106;2023-12-20T03:34:29;101258.09;;;10.54;89.71
54556;BME280;57291;37.520;15.106;2023-12-20T03:36:57;101253.22;;;10.51;89.63
54556;BME280;57291;37.520;15.106;2023-12-20T03:39:24;101254.56;;;10.54;89.51
54556;BME280;57291;37.520;15.106;2023-12-20T03:41:52;101249.41;;;10.52;88.77
54556;BME280;57291;37.520;15.106;2023-12-20T03:44:19;101245.38;;;10.50;88.76
54556;BME280;57291;37.520;15.106;2023-12-20T03:46:47;101239.09;;;10.49;88.69
54556;BME280;57291;37.520;15.106;2023-12-20T03:49:17;101244.03;;;10.47;88.51
54556;BME280;57291;37.520;15.106;2023-12-20T03:51:44;101235.88;;;10.42;88.68
54556;BME280;57291;37.520;15.106;2023-12-20T03:54:12;101232.91;;;10.39;88.52
54556;BME280;57291;37.520;15.106;2023-12-20T03:56:39;101232.66;;;10.35;88.68
54556;BME280;57291;37.520;15.106;2023-12-20T03:59:07;101220.44;;;10.32;88.85
54556;BME280;57291;37.520;15.106;2023-12-20T04:01:34;101216.13;;;10.31;88.97
54556;BME280;57291;37.520;15.106;2023-12-20T04:04:02;101217.78;;;10.27;89.19
54556;BME280;57291;37.520;15.106;2023-12-20T04:06:29;101206.13;;;10.27;89.20
54556;BME280;57291;37.520;15.106;2023-12-20T04:08:57;101211.78;;;10.25;89.18
54556;BME280;57291;37.520;15.106;2023-12-20T04:11:24;101208.00;;;10.21;89.26
54556;BME280;57291;37.520;15.106;2023-12-20T04:13:51;101204.47;;;10.21;89.21
54556;BME280;57291;37.520;15.106;2023-12-20T04:16:19;101200.97;;;10.20;89.33
54556;BME280;57291;37.520;15.106;2023-12-20T04:18:46;101200.13;;;10.20;89.09
54556;BME280;57291;37.520;15.106;2023-12-20T04:21:14;101200.69;;;10.17;89.09
54556;BME280;57291;37.520;15.106;2023-12-20T04:23:41;101200.97;;;10.15;89.09
54556;BME280;57291;37.520;15.106;2023-12-20T04:26:09;101199.34;;;10.14;88.74
54556;BME280;57291;37.520;15.106;2023-12-20T04:28:36;101194.50;;;10.11;88.88
54556;BME280;57291;37.520;15.106;2023-12-20T04:31:03;101189.06;;;10.11;88.56
54556;BME280;57291;37.520;15.106;2023-12-20T04:33:31;101186.59;;;10.09;88.39
54556;BME280;57291;37.520;15.106;2023-12-20T04:35:58;101179.84;;;10.07;88.65
54556;BME280;57291;37.520;15.106;2023-12-20T04:38:27;101189.06;;;10.06;88.45
54556;BME280;57291;37.520;15.106;2023-12-20T04:40:54;101186.91;;;10.08;88.71
54556;BME280;57291;37.520;15.106;2023-12-20T04:43:22;101180.38;;;10.09;88.25
54556;BME280;57291;37.520;15.106;2023-12-20T04:45:49;101185.53;;;10.10;88.32
54556;BME280;57291;37.520;15.106;2023-12-20T04:48:16;101184.44;;;10.12;87.88
54556;BME280;57291;37.520;15.106;2023-12-20T04:50:44;101182.81;;;10.10;87.21
54556;BME280;57291;37.520;15.106;2023-12-20T04:53:11;101188.25;;;10.10;86.81
54556;BME280;57291;37.520;15.106;2023-12-20T04:55:39;101188.81;;;10.07;86.57
54556;BME280;57291;37.520;15.106;2023-12-20T04:58:06;101183.94;;;10.04;86.39
54556;BME280;57291;37.520;15.106;2023-12-20T05:00:34;101188.81;;;10.02;85.92
54556;BME280;57291;37.520;15.106;2023-12-20T05:03:01;101189.38;;;9.99;85.79
54556;BME280;57291;37.520;15.106;2023-12-20T05:05:28;101185.84;;;9.99;85.90
54556;BME280;57291;37.520;15.106;2023-12-20T05:07:56;101188.81;;;10.02;85.92
54556;BME280;57291;37.520;15.106;2023-12-20T05:10:23;101193.69;;;10.05;85.56
54556;BME280;57291;37.520;15.106;2023-12-20T05:12:51;101188.81;;;10.02;85.40
54556;BME280;57291;37.520;15.106;2023-12-20T05:15:18;101194.53;;;10.01;85.14
54556;BME280;57291;37.520;15.106;2023-12-20T05:17:45;101195.34;;;10.01;85.58
54556;BME280;57291;37.520;15.106;2023-12-20T05:20:13;101188.25;;;10.05;85.61
54556;BME280;57291;37.520;15.106;2023-12-20T05:22:41;101190.66;;;10.12;84.73
54556;BME280;57291;37.520;15.106;2023-12-20T05:25:08;101188.75;;;10.13;83.86
54556;BME280;57291;37.520;15.106;2023-12-20T05:27:36;101182.50;;;10.17;83.37
54556;BME280;57291;37.520;15.106;2023-12-20T05:30:04;101179.78;;;10.17;82.77
54556;BME280;57291;37.520;15.106;2023-12-20T05:32:32;101177.31;;;10.21;81.55
54556;BME280;57291;37.520;15.106;2023-12-20T05:34:59;101179.19;;;10.25;80.08
54556;BME280;57291;37.520;15.106;2023-12-20T05:37:26;101174.31;;;10.22;79.82
54556;BME280;57291;37.520;15.106;2023-12-20T05:39:54;101167.53;;;10.20;79.94
54556;BME280;57291;37.520;15.106;2023-12-20T05:42:21;101173.25;;;10.23;80.14
54556;BME280;57291;37.520;15.106;2023-12-20T05:44:49;101182.16;;;10.29;79.94
54556;BME280;57291;37.520;15.106;2023-12-20T05:47:19;101182.97;;;10.29;80.04
54556;BME280;57291;37.520;15.106;2023-12-20T05:49:47;101182.16;;;10.29;80.17
54556;BME280;57291;37.520;15.106;2023-12-20T05:52:14;101182.19;;;10.24;80.50
54556;BME280;57291;37.520;15.106;2023-12-20T05:54:42;101180.84;;;10.16;80.73
54556;BME280;57291;37.520;15.106;2023-12-20T05:57:09;101178.69;;;10.18;79.97
54556;BME280;57291;37.520;15.106;2023-12-20T05:59:37;101175.44;;;10.16;79.85
54556;BME280;57291;37.520;15.106;2023-12-20T06:02:04;101175.19;;;10.13;79.65
54556;BME280;57291;37.520;15.106;2023-12-20T06:04:32;101169.75;;;10.13;79.53
54556;BME280;57291;37.520;15.106;2023-12-20T06:07:01;101169.75;;;10.13;79.50
54556;BME280;57291;37.520;15.106;2023-12-20T06:09:28;101169.50;;;10.09;79.60
54556;BME280;57291;37.520;15.106;2023-12-20T06:11:58;101172.50;;;10.07;79.80
54556;BME280;57291;37.520;15.106;2023-12-20T06:14:25;101172.50;;;10.07;79.92
54556;BME280;57291;37.520;15.106;2023-12-20T06:16:52;101172.50;;;10.07;80.00
54556;BME280;57291;37.520;15.106;2023-12-20T06:19:20;101167.59;;;10.09;79.88
54556;BME280;57291;37.520;15.106;2023-12-20T06:21:47;101167.03;;;10.13;79.64
54556;BME280;57291;37.520;15.106;2023-12-20T06:24:15;101177.34;;;10.16;79.70
54556;BME280;57291;37.520;15.106;2023-12-20T06:26:42;101171.63;;;10.17;79.28
54556;BME280;57291;37.520;15.106;2023-12-20T06:29:10;101165.66;;;10.20;79.21
54556;BME280;57291;37.520;15.106;2023-12-20T06:31:37;101162.88;;;10.30;78.83
54556;BME280;57291;37.520;15.106;2023-12-20T06:34:04;101168.28;;;10.36;78.22
54556;BME280;57291;37.520;15.106;2023-12-20T06:36:32;101163.06;;;10.39;78.23
54556;BME280;57291;37.520;15.106;2023-12-20T06:38:59;101161.94;;;10.45;77.82
54556;BME280;57291;37.520;15.106;2023-12-20T06:41:27;101163.84;;;10.50;77.00
54556;BME280;57291;37.520;15.106;2023-12-20T06:43:55;101149.69;;;10.53;76.90
54556;BME280;57291;37.520;15.106;2023-12-20T06:46:23;101152.06;;;10.60;77.07
54556;BME280;57291;37.520;15.106;2023-12-20T06:48:50;101155.53;;;10.65;76.62
54556;BME280;57291;37.520;15.106;2023-12-20T06:51:18;101150.63;;;10.67;75.43
54556;BME280;57291;37.520;15.106;2023-12-20T06:53:47;101144.56;;;10.75;75.58
54556;BME280;57291;37.520;15.106;2023-12-20T06:56:14;101139.09;;;10.80;74.74
54556;BME280;57291;37.520;15.106;2023-12-20T06:58:46;101147.44;;;10.89;74.57
54556;BME280;57291;37.520;15.106;2023-12-20T07:01:14;101140.56;;;10.97;74.15
54556;BME280;57291;37.520;15.106;2023-12-20T07:03:42;101144.56;;;11.04;73.34
54556;BME280;57291;37.520;15.106;2023-12-20T07:06:10;101134.97;;;11.12;73.34
54556;BME280;57291;37.520;15.106;2023-12-20T07:08:38;101144.63;;;11.23;73.19
54556;BME280;57291;37.520;15.106;2023-12-20T07:11:06;101141.53;;;11.35;72.78
54556;BME280;57291;37.520;15.106;2023-12-20T07:13:33;101141.03;;;11.52;72.12
54556;BME280;57291;37.520;15.106;2023-12-20T07:16:01;101141.13;;;11.66;71.23
54556;BME280;57291;37.520;15.106;2023-12-20T07:18:28;101138.47;;;11.85;70.79
54556;BME280;57291;37.520;15.106;2023-12-20T07:20:56;101127.88;;;12.02;70.22
54556;BME280;57291;37.520;15.106;2023-12-20T07:23:23;101130.81;;;12.25;69.58
54556;BME280;57291;37.520;15.106;2023-12-20T07:25:51;101134.09;;;12.40;68.99
54556;BME280;57291;37.520;15.106;2023-12-20T07:28:18;101130.91;;;12.52;68.32
54556;BME280;57291;37.520;15.106;2023-12-20T07:30:45;101127.13;;;12.67;67.34
54556;BME280;57291;37.520;15.106;2023-12-20T07:33:13;101129.34;;;12.79;67.45
54556;BME280;57291;37.520;15.106;2023-12-20T07:35:41;101127.03;;;12.86;67.38
54556;BME280;57291;37.520;15.106;2023-12-20T07:38:08;101124.22;;;12.91;67.68
54556;BME280;57291;37.520;15.106;2023-12-20T07:40:36;101128.56;;;12.92;67.34
54556;BME280;57291;37.520;15.106;2023-12-20T07:43:04;101131.00;;;12.94;67.10
54556;BME280;57291;37.520;15.106;2023-12-20T07:45:31;101129.06;;;12.94;67.26
54556;BME280;57291;37.520;15.106;2023-12-20T07:47:59;101129.88;;;12.95;67.11
54556;BME280;57291;37.520;15.106;2023-12-20T07:50:27;101122.50;;;12.95;67.15
54556;BME280;57291;37.520;15.106;2023-12-20T07:52:55;101121.91;;;12.98;67.24
54556;BME280;57291;37.520;15.106;2023-12-20T07:55:22;101125.44;;;12.99;66.94
54556;BME280;57291;37.520;15.106;2023-12-20T07:57:49;101127.56;;;13.02;67.11
54556;BME280;57291;37.520;15.106;2023-12-20T08:00:17;101129.16;;;13.03;67.11
54556;BME280;57291;37.520;15.106;2023-12-20T08:02:45;101136.75;;;13.06;67.47
54556;BME280;57291;37.520;15.106;2023-12-20T08:05:13;101136.16;;;13.09;67.38
54556;BME280;57291;37.520;15.106;2023-12-20T08:07:42;101131.22;;;13.11;67.27
54556;BME280;57291;37.520;15.106;2023-12-20T08:10:10;101139.09;;;13.12;67.08
54556;BME280;57291;37.520;15.106;2023-12-20T08:12:37;101140.94;;;13.17;67.28
54556;BME280;57291;37.520;15.106;2023-12-20T08:15:07;101137.59;;;13.20;66.08
54556;BME280;57291;37.520;15.106;2023-12-20T08:17:34;101142.53;;;13.18;65.91
54556;BME280;57291;37.520;15.106;2023-12-20T08:20:03;101138.69;;;13.19;65.93
54556;BME280;57291;37.520;15.106;2023-12-20T08:22:34;101138.09;;;13.22;65.13
54556;BME280;57291;37.520;15.106;2023-12-20T08:25:02;101134.88;;;13.20;65.13
54556;BME280;57291;37.520;15.106;2023-12-20T08:27:29;101142.69;;;13.27;65.28
54556;BME280;57291;37.520;15.106;2023-12-20T08:29:58;101142.56;;;13.32;64.71
54556;BME280;57291;37.520;15.106;2023-12-20T08:32:26;101129.94;;;13.36;64.71
54556;BME280;57291;37.520;15.106;2023-12-20T08:34:54;101133.66;;;13.54;64.76
54556;BME280;57291;37.520;15.106;2023-12-20T08:37:21;101129.88;;;13.77;64.75
54556;BME280;57291;37.520;15.106;2023-12-20T08:39:48;101134.59;;;13.99;64.54
54556;BME280;57291;37.520;15.106;2023-12-20T08:42:16;101137.78;;;14.15;64.11
54556;BME280;57291;37.520;15.106;2023-12-20T08:44:43;101137.03;;;14.23;63.86
54556;BME280;57291;37.520;15.106;2023-12-20T08:47:10;101137.72;;;14.29;63.80
54556;BME280;57291;37.520;15.106;2023-12-20T08:49:40;101130.34;;;14.29;63.67
54556;BME280;57291;37.520;15.106;2023-12-20T08:52:08;101129.72;;;14.32;64.13
54556;BME280;57291;37.520;15.106;2023-12-20T08:54:35;101130.41;;;14.38;64.22
54556;BME280;57291;37.520;15.106;2023-12-20T08:57:03;101127.72;;;14.47;64.34
54556;BME280;57291;37.520;15.106;2023-12-20T08:59:31;101121.94;;;14.48;64.45
54556;BME280;57291;37.520;15.106;2023-12-20T09:01:58;101113.81;;;14.57;64.96
54556;BME280;57291;37.520;15.106;2023-12-20T09:04:26;101109.47;;;14.56;64.84
54556;BME280;57291;37.520;15.106;2023-12-20T09:06:53;101107.78;;;14.69;64.74
54556;BME280;57291;37.520;15.106;2023-12-20T09:09:21;101107.44;;;14.70;63.97
54556;BME280;57291;37.520;15.106;2023-12-20T09:11:48;101105.53;;;14.71;64.13
54556;BME280;57291;37.520;15.106;2023-12-20T09:14:18;101100.88;;;14.71;64.20
54556;BME280;57291;37.520;15.106;2023-12-20T09:16:46;101098.25;;;14.66;63.74
54556;BME280;57291;37.520;15.106;2023-12-20T09:19:13;101091.50;;;14.41;64.71
54556;BME280;57291;37.520;15.106;2023-12-20T09:21:41;101087.22;;;14.26;66.22
54556;BME280;57291;37.520;15.106;2023-12-20T09:24:08;101089.94;;;14.26;66.39
54556;BME280;57291;37.520;15.106;2023-12-20T09:26:36;101083.34;;;14.27;67.15
54556;BME280;57291;37.520;15.106;2023-12-20T09:29:03;101080.13;;;14.48;66.23
54556;BME280;57291;37.520;15.106;2023-12-20T09:31:30;101083.25;;;14.55;65.87
54556;BME280;57291;37.520;15.106;2023-12-20T09:33:58;101069.88;;;14.53;64.43
54556;BME280;57291;37.520;15.106;2023-12-20T09:36:26;101061.53;;;14.59;64.89
54556;BME280;57291;37.520;15.106;2023-12-20T09:38:54;101062.66;;;14.58;64.83
54556;BME280;57291;37.520;15.106;2023-12-20T09:41:22;101054.31;;;14.63;64.75
54556;BME280;57291;37.520;15.106;2023-12-20T09:43:52;101054.75;;;14.56;65.62
54556;BME280;57291;37.520;15.106;2023-12-20T09:46:24;101050.59;;;14.59;66.17
54556;BME280;57291;37.520;15.106;2023-12-20T09:48:55;101049.81;;;14.58;66.94
54556;BME280;57291;37.520;15.106;2023-12-20T09:51:23;101046.00;;;14.68;66.77
54556;BME280;57291;37.520;15.106;2023-12-20T09:53:54;101047.09;;;14.67;66.51
54556;BME280;57291;37.520;15.106;2023-12-20T09:56:24;101046.16;;;14.71;66.59
54556;BME280;57291;37.520;15.106;2023-12-20T09:58:52;101034.88;;;14.73;66.45
54556;BME280;57291;37.520;15.106;2023-12-20T10:01:21;101032.31;;;14.76;66.76
54556;BME280;57291;37.520;15.106;2023-12-20T10:03:51;101036.38;;;14.79;67.25
54556;BME280;57291;37.520;15.106;2023-12-20T10:06:22;101026.72;;;14.82;67.27
54556;BME280;57291;37.520;15.106;2023-12-20T10:08:49;101016.25;;;14.84;67.41
54556;BME280;57291;37.520;15.106;2023-12-20T10:11:17;101012.91;;;14.95;67.79
54556;BME280;57291;37.520;15.106;2023-12-20T10:13:47;101014.41;;;15.01;67.09
54556;BME280;57291;37.520;15.106;2023-12-20T10:16:15;101003.91;;;15.04;66.39
54556;BME280;57291;37.520;15.106;2023-12-20T10:18:42;101004.88;;;14.99;67.92
54556;BME280;57291;37.520;15.106;2023-12-20T10:21:10;100996.84;;;15.02;68.48
54556;BME280;57291;37.520;15.106;2023-12-20T10:23:38;100992.66;;;15.05;68.36
54556;BME280;57291;37.520;15.106;2023-12-20T10:26:07;100989.63;;;15.15;68.38
54556;BME280;57291;37.520;15.106;2023-12-20T10:28:35;100981.91;;;15.17;68.54
54556;BME280;57291;37.520;15.106;2023-12-20T10:31:03;100987.88;;;15.28;68.11
54556;BME280;57291;37.520;15.106;2023-12-20T10:33:31;100973.53;;;15.31;68.19
54556;BME280;57291;37.520;15.106;2023-12-20T10:36:02;100971.94;;;15.30;67.99
54556;BME280;57291;37.520;15.106;2023-12-20T10:38:30;100970.78;;;15.40;67.78
54556;BME280;57291;37.520;15.106;2023-12-20T10:41:01;100963.06;;;15.24;68.33
54556;BME280;57291;37.520;15.106;2023-12-20T10:43:32;100954.69;;;15.30;68.16
54556;BME280;57291;37.520;15.106;2023-12-20T10:46:00;100952.44;;;15.75;67.76
54556;BME280;57291;37.520;15.106;2023-12-20T10:48:30;100946.84;;;16.18;65.97
54556;BME280;57291;37.520;15.106;2023-12-20T10:50:59;100933.25;;;16.39;64.99
54556;BME280;57291;37.520;15.106;2023-12-20T10:53:27;100931.16;;;16.36;64.67
54556;BME280;57291;37.520;15.106;2023-12-20T10:55:55;100919.41;;;16.27;64.13
54556;BME280;57291;37.520;15.106;2023-12-20T10:58:28;100923.16;;;16.23;64.64
54556;BME280;57291;37.520;15.106;2023-12-20T11:01:00;100920.84;;;16.33;64.89
54556;BME280;57291;37.520;15.106;2023-12-20T11:03:35;100916.50;;;16.32;64.86
54556;BME280;57291;37.520;15.106;2023-12-20T11:08:36;100917.34;;;16.15;64.88
54556;BME280;57291;37.520;15.106;2023-12-20T11:11:26;100907.66;;;15.80;64.87
54556;BME280;57291;37.520;15.106;2023-12-20T11:14:00;100904.41;;;15.69;66.04
54556;BME280;57291;37.520;15.106;2023-12-20T11:16:32;100903.13;;;15.75;66.24
54556;BME280;57291;37.520;15.106;2023-12-20T11:19:14;100898.38;;;16.02;65.85
54556;BME280;57291;37.520;15.106;2023-12-20T11:21:42;100893.38;;;16.04;64.67
54556;BME280;57291;37.520;15.106;2023-12-20T11:24:09;100894.59;;;15.77;65.86
54556;BME280;57291;37.520;15.106;2023-12-20T11:26:37;100888.09;;;15.90;64.73
54556;BME280;57291;37.520;15.106;2023-12-20T11:29:35;100889.06;;;16.32;66.37
54556;BME280;57291;37.520;15.106;2023-12-20T11:32:04;100881.75;;;16.07;68.14
54556;BME280;57291;37.520;15.106;2023-12-20T11:34:54;100880.25;;;15.80;69.04
54556;BME280;57291;37.520;15.106;2023-12-20T11:37:21;100879.91;;;15.64;68.97
54556;BME280;57291;37.520;15.106;2023-12-20T11:39:56;100865.28;;;15.51;69.22
54556;BME280;57291;37.520;15.106;2023-12-20T11:42:27;100868.81;;;15.60;69.64
54556;BME280;57291;37.520;15.106;2023-12-20T11:44:55;100856.56;;;15.58;69.83
54556;BME280;57291;37.520;15.106;2023-12-20T11:47:23;100858.19;;;15.50;69.68
54556;BME280;57291;37.520;15.106;2023-12-20T11:49:50;100862.22;;;15.27;69.19
54556;BME280;57291;37.520;15.106;2023-12-20T11:52:18;100859.34;;;15.14;70.39
54556;BME280;57291;37.520;15.106;2023-12-20T11:54:46;100853.25;;;15.17;70.64
54556;BME280;57291;37.520;15.106;2023-12-20T11:57:15;100849.00;;;15.46;70.66
54556;BME280;57291;37.520;15.106;2023-12-20T11:59:42;100844.97;;;15.52;68.40
54556;BME280;57291;37.520;15.106;2023-12-20T12:02:11;100842.75;;;15.28;69.26
54556;BME280;57291;37.520;15.106;2023-12-20T12:04:43;100839.19;;;15.10;70.13
54556;BME280;57291;37.520;15.106;2023-12-20T12:07:11;100822.16;;;15.05;70.51
54556;BME280;57291;37.520;15.106;2023-12-20T12:09:38;100822.66;;;14.98;70.40
54556;BME280;57291;37.520;15.106;2023-12-20T12:12:06;100816.50;;;14.84;69.61
54556;BME280;57291;37.520;15.106;2023-12-20T12:14:38;100820.22;;;14.79;70.62
54556;BME280;57291;37.520;15.106;2023-12-20T12:17:14;100820.69;;;14.72;71.43
54556;BME280;57291;37.520;15.106;2023-12-20T12:19:42;100807.63;;;14.61;73.35
54556;BME280;57291;37.520;15.106;2023-12-20T12:22:14;100806.69;;;14.65;73.96
54556;BME280;57291;37.520;15.106;2023-12-20T12:24:43;100807.66;;;14.69;74.03
54556;BME280;57291;37.520;15.106;2023-12-20T12:27:14;100807.19;;;14.76;74.12
54556;BME280;57291;37.520;15.106;2023-12-20T12:30:03;100799.94;;;14.71;73.59
54556;BME280;57291;37.520;15.106;2023-12-20T12:32:32;100796.88;;;14.73;74.38
54556;BME280;57291;37.520;15.106;2023-12-20T12:35:00;100795.28;;;14.72;75.25
54556;BME280;57291;37.520;15.106;2023-12-20T12:37:27;100795.44;;;14.58;75.81
54556;BME280;57291;37.520;15.106;2023-12-20T12:39:56;100789.13;;;14.58;75.23
54556;BME280;57291;37.520;15.106;2023-12-20T12:42:24;100786.75;;;14.65;75.30
54556;BME280;57291;37.520;15.106;2023-12-20T12:44:55;100791.09;;;14.66;73.59
54556;BME280;57291;37.520;15.106;2023-12-20T12:47:25;100780.31;;;14.69;72.31
54556;BME280;57291;37.520;15.106;2023-12-20T12:49:53;100773.25;;;14.68;71.93